sensor_id;sensor_type;location;lat;lon;timestamp;P1;durP1;ratioP1;P2;durP2;ratioP2
42724;SDS011;28369;44.046;23.014;2023-04-03T00:00:04;5.45;;;4.10;;
42724;SDS011;28369;44.046;23.014;2023-04-03T00:02:30;4.30;;;3.60;;
42724;SDS011;28369;44.046;23.014;2023-04-03T00:04:56;5.65;;;4.70;;
42724;SDS011;28369;44.046;23.014;2023-04-03T00:07:21;7.45;;;5.10;;
42724;SDS011;28369;44.046;23.014;2023-04-03T00:09:47;8.35;;;4.82;;
42724;SDS011;28369;44.046;23.014;2023-04-03T00:12:12;8.73;;;5.00;;
42724;SDS011;28369;44.046;23.014;2023-04-03T00:14:38;5.75;;;4.65;;
42724;SDS011;28369;44.046;23.014;2023-04-03T00:17:03;8.63;;;5.07;;
42724;SDS011;28369;44.046;23.014;2023-04-03T00:19:29;5.72;;;4.13;;
42724;SDS011;28369;44.046;23.014;2023-04-03T00:21:55;6.45;;;4.63;;
42724;SDS011;28369;44.046;23.014;2023-04-03T00:24:20;4.75;;;3.92;;
42724;SDS011;28369;44.046;23.014;2023-04-03T00:26:46;7.80;;;4.22;;
42724;SDS011;28369;44.046;23.014;2023-04-03T00:29:11;5.68;;;4.22;;
42724;SDS011;28369;44.046;23.014;2023-04-03T00:31:37;4.57;;;4.07;;
42724;SDS011;28369;44.046;23.014;2023-04-03T00:34:02;6.07;;;4.90;;
42724;SDS011;28369;44.046;23.014;2023-04-03T00:36:27;6.47;;;5.07;;
42724;SDS011;28369;44.046;23.014;2023-04-03T00:38:53;9.88;;;5.00;;
42724;SDS011;28369;44.046;23.014;2023-04-03T00:41:18;6.32;;;5.43;;
42724;SDS011;28369;44.046;23.014;2023-04-03T00:43:44;8.63;;;5.63;;
42724;SDS011;28369;44.046;23.014;2023-04-03T00:46:10;8.98;;;6.53;;
42724;SDS011;28369;44.046;23.014;2023-04-03T00:48:43;7.65;;;6.85;;
42724;SDS011;28369;44.046;23.014;2023-04-03T00:51:17;8.52;;;6.78;;
42724;SDS011;28369;44.046;23.014;2023-04-03T00:53:54;8.82;;;7.10;;
42724;SDS011;28369;44.046;23.014;2023-04-03T00:56:24;9.82;;;6.13;;
42724;SDS011;28369;44.046;23.014;2023-04-03T00:58:52;7.60;;;6.40;;
42724;SDS011;28369;44.046;23.014;2023-04-03T01:01:22;6.97;;;6.30;;
42724;SDS011;28369;44.046;23.014;2023-04-03T01:03:50;7.55;;;6.30;;
42724;SDS011;28369;44.046;23.014;2023-04-03T01:06:16;8.02;;;6.43;;
42724;SDS011;28369;44.046;23.014;2023-04-03T01:08:45;9.63;;;7.63;;
42724;SDS011;28369;44.046;23.014;2023-04-03T01:11:15;7.80;;;6.85;;
42724;SDS011;28369;44.046;23.014;2023-04-03T01:13:40;12.73;;;6.25;;
42724;SDS011;28369;44.046;23.014;2023-04-03T01:16:06;7.45;;;6.35;;
42724;SDS011;28369;44.046;23.014;2023-04-03T01:18:32;6.70;;;5.88;;
42724;SDS011;28369;44.046;23.014;2023-04-03T01:21:08;8.38;;;5.72;;
42724;SDS011;28369;44.046;23.014;2023-04-03T01:26:21;8.07;;;6.07;;
42724;SDS011;28369;44.046;23.014;2023-04-03T01:28:47;8.88;;;6.80;;
42724;SDS011;28369;44.046;23.014;2023-04-03T01:31:23;7.63;;;6.57;;
42724;SDS011;28369;44.046;23.014;2023-04-03T01:33:52;8.02;;;6.07;;
42724;SDS011;28369;44.046;23.014;2023-04-03T01:36:27;7.47;;;6.75;;
42724;SDS011;28369;44.046;23.014;2023-04-03T01:38:55;6.80;;;5.85;;
42724;SDS011;28369;44.046;23.014;2023-04-03T01:41:21;6.18;;;5.57;;
42724;SDS011;28369;44.046;23.014;2023-04-03T01:43:48;11.13;;;6.35;;
42724;SDS011;28369;44.046;23.014;2023-04-03T01:46:14;6.10;;;5.50;;
42724;SDS011;28369;44.046;23.014;2023-04-03T01:48:41;7.63;;;4.97;;
42724;SDS011;28369;44.046;23.014;2023-04-03T01:51:07;6.40;;;5.20;;
42724;SDS011;28369;44.046;23.014;2023-04-03T01:53:32;6.28;;;4.88;;
42724;SDS011;28369;44.046;23.014;2023-04-03T01:55:58;6.90;;;5.20;;
42724;SDS011;28369;44.046;23.014;2023-04-03T01:58:23;5.30;;;4.80;;
42724;SDS011;28369;44.046;23.014;2023-04-03T02:00:49;6.20;;;5.03;;
42724;SDS011;28369;44.046;23.014;2023-04-03T02:03:14;6.03;;;4.63;;
42724;SDS011;28369;44.046;23.014;2023-04-03T02:05:40;5.75;;;5.13;;
42724;SDS011;28369;44.046;23.014;2023-04-03T02:08:05;5.97;;;4.72;;
42724;SDS011;28369;44.046;23.014;2023-04-03T02:10:32;6.00;;;4.60;;
42724;SDS011;28369;44.046;23.014;2023-04-03T02:12:57;5.43;;;4.78;;
42724;SDS011;28369;44.046;23.014;2023-04-03T02:15:23;4.22;;;3.88;;
42724;SDS011;28369;44.046;23.014;2023-04-03T02:17:48;4.22;;;3.53;;
42724;SDS011;28369;44.046;23.014;2023-04-03T02:20:14;4.03;;;3.38;;
42724;SDS011;28369;44.046;23.014;2023-04-03T02:22:40;4.45;;;4.00;;
42724;SDS011;28369;44.046;23.014;2023-04-03T02:25:05;3.50;;;3.17;;
42724;SDS011;28369;44.046;23.014;2023-04-03T02:27:31;5.95;;;2.88;;
42724;SDS011;28369;44.046;23.014;2023-04-03T02:29:56;6.15;;;3.08;;
42724;SDS011;28369;44.046;23.014;2023-04-03T02:32:22;3.72;;;3.05;;
42724;SDS011;28369;44.046;23.014;2023-04-03T02:34:48;3.67;;;3.15;;
42724;SDS011;28369;44.046;23.014;2023-04-03T02:37:13;5.13;;;3.03;;
42724;SDS011;28369;44.046;23.014;2023-04-03T02:39:39;3.08;;;2.72;;
42724;SDS011;28369;44.046;23.014;2023-04-03T02:42:05;3.45;;;3.15;;
42724;SDS011;28369;44.046;23.014;2023-04-03T02:44:30;3.10;;;2.90;;
42724;SDS011;28369;44.046;23.014;2023-04-03T02:46:56;3.17;;;2.75;;
42724;SDS011;28369;44.046;23.014;2023-04-03T02:49:21;4.05;;;3.03;;
42724;SDS011;28369;44.046;23.014;2023-04-03T02:51:47;3.50;;;2.60;;
42724;SDS011;28369;44.046;23.014;2023-04-03T02:54:12;4.65;;;2.95;;
42724;SDS011;28369;44.046;23.014;2023-04-03T02:56:38;3.60;;;2.67;;
42724;SDS011;28369;44.046;23.014;2023-04-03T02:59:03;3.00;;;2.45;;
42724;SDS011;28369;44.046;23.014;2023-04-03T03:01:30;3.35;;;2.75;;
42724;SDS011;28369;44.046;23.014;2023-04-03T03:03:57;3.90;;;2.67;;
42724;SDS011;28369;44.046;23.014;2023-04-03T03:06:24;3.83;;;3.10;;
42724;SDS011;28369;44.046;23.014;2023-04-03T03:08:49;3.97;;;2.75;;
42724;SDS011;28369;44.046;23.014;2023-04-03T03:11:15;3.10;;;2.80;;
42724;SDS011;28369;44.046;23.014;2023-04-03T03:13:41;4.80;;;3.20;;
42724;SDS011;28369;44.046;23.014;2023-04-03T03:16:06;3.17;;;2.55;;
42724;SDS011;28369;44.046;23.014;2023-04-03T03:18:33;3.50;;;3.08;;
42724;SDS011;28369;44.046;23.014;2023-04-03T03:20:59;3.63;;;3.13;;
42724;SDS011;28369;44.046;23.014;2023-04-03T03:23:26;4.30;;;3.60;;
42724;SDS011;28369;44.046;23.014;2023-04-03T03:25:57;4.55;;;3.40;;
42724;SDS011;28369;44.046;23.014;2023-04-03T03:28:24;4.97;;;3.78;;
42724;SDS011;28369;44.046;23.014;2023-04-03T03:30:49;4.40;;;3.78;;
42724;SDS011;28369;44.046;23.014;2023-04-03T03:33:15;6.38;;;4.00;;
42724;SDS011;28369;44.046;23.014;2023-04-03T03:35:42;10.57;;;4.95;;
42724;SDS011;28369;44.046;23.014;2023-04-03T03:38:08;9.88;;;6.07;;
42724;SDS011;28369;44.046;23.014;2023-04-03T03:40:33;12.50;;;6.63;;
42724;SDS011;28369;44.046;23.014;2023-04-03T03:42:59;22.67;;;9.85;;
42724;SDS011;28369;44.046;23.014;2023-04-03T03:45:24;21.27;;;9.60;;
42724;SDS011;28369;44.046;23.014;2023-04-03T03:47:50;15.50;;;6.78;;
42724;SDS011;28369;44.046;23.014;2023-04-03T03:50:16;6.68;;;3.92;;
42724;SDS011;28369;44.046;23.014;2023-04-03T03:52:41;4.93;;;3.45;;
42724;SDS011;28369;44.046;23.014;2023-04-03T03:55:07;5.93;;;3.58;;
42724;SDS011;28369;44.046;23.014;2023-04-03T03:57:33;4.68;;;3.95;;
42724;SDS011;28369;44.046;23.014;2023-04-03T03:59:58;5.55;;;3.67;;
42724;SDS011;28369;44.046;23.014;2023-04-03T04:02:23;4.70;;;4.00;;
42724;SDS011;28369;44.046;23.014;2023-04-03T04:04:49;7.88;;;3.95;;
42724;SDS011;28369;44.046;23.014;2023-04-03T04:07:14;4.57;;;4.18;;
42724;SDS011;28369;44.046;23.014;2023-04-03T04:09:40;4.82;;;3.95;;
42724;SDS011;28369;44.046;23.014;2023-04-03T04:12:05;4.65;;;3.63;;
42724;SDS011;28369;44.046;23.014;2023-04-03T04:14:31;6.43;;;4.13;;
42724;SDS011;28369;44.046;23.014;2023-04-03T04:16:57;6.05;;;4.20;;
42724;SDS011;28369;44.046;23.014;2023-04-03T04:19:22;5.45;;;4.22;;
42724;SDS011;28369;44.046;23.014;2023-04-03T04:21:48;6.10;;;4.68;;
42724;SDS011;28369;44.046;23.014;2023-04-03T04:24:13;6.57;;;5.13;;
42724;SDS011;28369;44.046;23.014;2023-04-03T04:26:39;8.07;;;6.32;;
42724;SDS011;28369;44.046;23.014;2023-04-03T04:29:04;7.68;;;6.18;;
42724;SDS011;28369;44.046;23.014;2023-04-03T04:31:30;7.05;;;5.28;;
42724;SDS011;28369;44.046;23.014;2023-04-03T04:33:55;5.40;;;4.40;;
42724;SDS011;28369;44.046;23.014;2023-04-03T04:36:21;6.03;;;4.18;;
42724;SDS011;28369;44.046;23.014;2023-04-03T04:38:46;4.97;;;3.78;;
42724;SDS011;28369;44.046;23.014;2023-04-03T04:41:12;6.63;;;3.97;;
42724;SDS011;28369;44.046;23.014;2023-04-03T04:43:37;5.25;;;3.65;;
42724;SDS011;28369;44.046;23.014;2023-04-03T04:46:04;5.38;;;3.85;;
42724;SDS011;28369;44.046;23.014;2023-04-03T04:48:31;7.03;;;4.40;;
42724;SDS011;28369;44.046;23.014;2023-04-03T04:50:57;5.57;;;4.13;;
42724;SDS011;28369;44.046;23.014;2023-04-03T04:53:23;3.75;;;3.45;;
42724;SDS011;28369;44.046;23.014;2023-04-03T04:55:48;4.50;;;3.67;;
42724;SDS011;28369;44.046;23.014;2023-04-03T04:58:14;3.28;;;2.97;;
42724;SDS011;28369;44.046;23.014;2023-04-03T05:00:40;4.65;;;3.15;;
42724;SDS011;28369;44.046;23.014;2023-04-03T05:03:05;3.03;;;2.72;;
42724;SDS011;28369;44.046;23.014;2023-04-03T05:05:31;5.15;;;2.50;;
42724;SDS011;28369;44.046;23.014;2023-04-03T05:07:56;3.53;;;3.13;;
42724;SDS011;28369;44.046;23.014;2023-04-03T05:10:22;3.25;;;2.80;;
42724;SDS011;28369;44.046;23.014;2023-04-03T05:12:48;3.03;;;2.50;;
42724;SDS011;28369;44.046;23.014;2023-04-03T05:15:13;5.07;;;2.83;;
42724;SDS011;28369;44.046;23.014;2023-04-03T05:17:39;2.78;;;2.58;;
42724;SDS011;28369;44.046;23.014;2023-04-03T05:20:04;3.70;;;2.40;;
42724;SDS011;28369;44.046;23.014;2023-04-03T05:22:31;3.00;;;2.65;;
42724;SDS011;28369;44.046;23.014;2023-04-03T05:24:56;3.38;;;2.25;;
42724;SDS011;28369;44.046;23.014;2023-04-03T05:27:22;3.40;;;2.60;;
42724;SDS011;28369;44.046;23.014;2023-04-03T05:29:49;4.35;;;2.67;;
42724;SDS011;28369;44.046;23.014;2023-04-03T05:32:15;3.22;;;2.55;;
42724;SDS011;28369;44.046;23.014;2023-04-03T05:34:40;4.45;;;3.15;;
42724;SDS011;28369;44.046;23.014;2023-04-03T05:37:06;3.28;;;2.95;;
42724;SDS011;28369;44.046;23.014;2023-04-03T05:39:31;4.28;;;3.10;;
42724;SDS011;28369;44.046;23.014;2023-04-03T05:41:57;5.15;;;3.20;;
42724;SDS011;28369;44.046;23.014;2023-04-03T05:44:22;7.22;;;4.60;;
42724;SDS011;28369;44.046;23.014;2023-04-03T05:46:48;10.68;;;6.00;;
42724;SDS011;28369;44.046;23.014;2023-04-03T05:49:13;11.40;;;5.88;;
42724;SDS011;28369;44.046;23.014;2023-04-03T05:51:39;5.22;;;3.20;;
42724;SDS011;28369;44.046;23.014;2023-04-03T05:54:08;4.57;;;3.45;;
42724;SDS011;28369;44.046;23.014;2023-04-03T05:56:37;3.72;;;3.35;;
42724;SDS011;28369;44.046;23.014;2023-04-03T05:59:03;6.00;;;3.40;;
42724;SDS011;28369;44.046;23.014;2023-04-03T06:01:28;9.70;;;5.60;;
42724;SDS011;28369;44.046;23.014;2023-04-03T06:03:54;10.02;;;5.85;;
42724;SDS011;28369;44.046;23.014;2023-04-03T06:06:19;4.97;;;3.72;;
42724;SDS011;28369;44.046;23.014;2023-04-03T06:08:47;3.97;;;3.25;;
42724;SDS011;28369;44.046;23.014;2023-04-03T06:11:12;4.95;;;2.72;;
42724;SDS011;28369;44.046;23.014;2023-04-03T06:13:38;2.85;;;2.63;;
42724;SDS011;28369;44.046;23.014;2023-04-03T06:16:04;3.63;;;2.40;;
42724;SDS011;28369;44.046;23.014;2023-04-03T06:18:30;3.70;;;3.30;;
42724;SDS011;28369;44.046;23.014;2023-04-03T06:20:56;3.70;;;3.30;;
42724;SDS011;28369;44.046;23.014;2023-04-03T06:23:23;3.67;;;3.03;;
42724;SDS011;28369;44.046;23.014;2023-04-03T06:25:48;3.28;;;2.67;;
42724;SDS011;28369;44.046;23.014;2023-04-03T06:28:14;3.53;;;2.75;;
42724;SDS011;28369;44.046;23.014;2023-04-03T06:30:39;3.40;;;2.90;;
42724;SDS011;28369;44.046;23.014;2023-04-03T06:33:05;2.92;;;2.65;;
42724;SDS011;28369;44.046;23.014;2023-04-03T06:35:30;2.88;;;2.17;;
42724;SDS011;28369;44.046;23.014;2023-04-03T06:37:56;2.33;;;2.13;;
42724;SDS011;28369;44.046;23.014;2023-04-03T06:40:23;3.05;;;2.20;;
42724;SDS011;28369;44.046;23.014;2023-04-03T06:42:50;2.58;;;2.17;;
42724;SDS011;28369;44.046;23.014;2023-04-03T06:45:16;3.03;;;1.90;;
42724;SDS011;28369;44.046;23.014;2023-04-03T06:47:41;2.25;;;2.05;;
42724;SDS011;28369;44.046;23.014;2023-04-03T06:50:07;2.92;;;2.20;;
42724;SDS011;28369;44.046;23.014;2023-04-03T06:52:36;3.42;;;1.80;;
42724;SDS011;28369;44.046;23.014;2023-04-03T06:55:01;2.10;;;1.70;;
42724;SDS011;28369;44.046;23.014;2023-04-03T06:57:27;2.92;;;1.35;;
42724;SDS011;28369;44.046;23.014;2023-04-03T06:59:53;2.30;;;1.67;;
42724;SDS011;28369;44.046;23.014;2023-04-03T07:02:18;3.67;;;1.70;;
42724;SDS011;28369;44.046;23.014;2023-04-03T07:04:43;2.10;;;1.58;;
42724;SDS011;28369;44.046;23.014;2023-04-03T07:07:09;2.38;;;1.50;;
42724;SDS011;28369;44.046;23.014;2023-04-03T07:09:34;1.98;;;1.77;;
42724;SDS011;28369;44.046;23.014;2023-04-03T07:12:00;1.67;;;1.58;;
42724;SDS011;28369;44.046;23.014;2023-04-03T07:14:27;2.90;;;2.42;;
42724;SDS011;28369;44.046;23.014;2023-04-03T09:28:48;2.13;;;1.88;;
42724;SDS011;28369;44.046;23.014;2023-04-03T09:34:00;4.03;;;2.92;;
42724;SDS011;28369;44.046;23.014;2023-04-03T09:36:38;1.58;;;1.38;;
42724;SDS011;28369;44.046;23.014;2023-04-03T09:39:05;2.05;;;1.60;;
42724;SDS011;28369;44.046;23.014;2023-04-03T09:41:36;3.63;;;1.98;;
42724;SDS011;28369;44.046;23.014;2023-04-03T09:44:01;3.08;;;1.73;;
42724;SDS011;28369;44.046;23.014;2023-04-03T09:46:31;2.67;;;1.80;;
42724;SDS011;28369;44.046;23.014;2023-04-03T09:49:04;2.63;;;1.80;;
42724;SDS011;28369;44.046;23.014;2023-04-03T09:51:30;3.05;;;1.63;;
42724;SDS011;28369;44.046;23.014;2023-04-03T09:53:56;2.22;;;1.58;;
42724;SDS011;28369;44.046;23.014;2023-04-03T09:56:27;3.22;;;1.73;;
42724;SDS011;28369;44.046;23.014;2023-04-03T10:01:30;1.67;;;1.50;;
42724;SDS011;28369;44.046;23.014;2023-04-03T10:04:05;6.28;;;2.50;;
42724;SDS011;28369;44.046;23.014;2023-04-03T10:06:41;1.30;;;1.20;;
42724;SDS011;28369;44.046;23.014;2023-04-03T10:09:22;3.00;;;1.40;;
42724;SDS011;28369;44.046;23.014;2023-04-03T10:12:06;1.73;;;1.38;;
42724;SDS011;28369;44.046;23.014;2023-04-03T10:24:51;1.70;;;1.40;;
42724;SDS011;28369;44.046;23.014;2023-04-03T10:27:40;1.70;;;1.25;;
42724;SDS011;28369;44.046;23.014;2023-04-03T10:36:19;2.22;;;1.17;;
42724;SDS011;28369;44.046;23.014;2023-04-03T10:42:18;2.78;;;1.83;;
42724;SDS011;28369;44.046;23.014;2023-04-03T10:52:51;3.80;;;1.90;;
42724;SDS011;28369;44.046;23.014;2023-04-03T10:58:00;2.80;;;1.30;;
42724;SDS011;28369;44.046;23.014;2023-04-03T11:00:47;2.55;;;1.65;;
42724;SDS011;28369;44.046;23.014;2023-04-03T11:03:26;2.47;;;1.95;;
42724;SDS011;28369;44.046;23.014;2023-04-03T11:05:59;3.38;;;2.22;;
42724;SDS011;28369;44.046;23.014;2023-04-03T11:08:35;3.58;;;2.25;;
42724;SDS011;28369;44.046;23.014;2023-04-03T11:11:15;1.87;;;1.70;;
42724;SDS011;28369;44.046;23.014;2023-04-03T11:13:48;2.78;;;1.75;;
42724;SDS011;28369;44.046;23.014;2023-04-03T11:16:21;10.13;;;2.42;;
42724;SDS011;28369;44.046;23.014;2023-04-03T11:18:58;2.88;;;1.85;;
42724;SDS011;28369;44.046;23.014;2023-04-03T11:23:54;3.88;;;2.13;;
42724;SDS011;28369;44.046;23.014;2023-04-03T11:26:24;1.95;;;1.65;;
42724;SDS011;28369;44.046;23.014;2023-04-03T11:28:56;1.80;;;1.70;;
42724;SDS011;28369;44.046;23.014;2023-04-03T11:34:02;4.15;;;2.17;;
42724;SDS011;28369;44.046;23.014;2023-04-03T11:36:30;4.30;;;2.13;;
42724;SDS011;28369;44.046;23.014;2023-04-03T11:39:25;3.35;;;2.10;;
42724;SDS011;28369;44.046;23.014;2023-04-03T11:41:53;5.70;;;2.42;;
42724;SDS011;28369;44.046;23.014;2023-04-03T11:47:08;3.75;;;2.90;;
42724;SDS011;28369;44.046;23.014;2023-04-03T11:52:54;3.13;;;2.80;;
42724;SDS011;28369;44.046;23.014;2023-04-03T12:13:34;2.17;;;1.90;;
42724;SDS011;28369;44.046;23.014;2023-04-03T12:16:04;7.32;;;2.30;;
42724;SDS011;28369;44.046;23.014;2023-04-03T12:21:20;4.45;;;2.80;;
42724;SDS011;28369;44.046;23.014;2023-04-03T12:37:43;2.97;;;2.55;;
42724;SDS011;28369;44.046;23.014;2023-04-03T12:41:11;4.95;;;2.50;;
42724;SDS011;28369;44.046;23.014;2023-04-03T12:43:49;2.50;;;2.30;;
42724;SDS011;28369;44.046;23.014;2023-04-03T12:46:37;4.53;;;2.75;;
42724;SDS011;28369;44.046;23.014;2023-04-03T12:49:41;4.90;;;2.55;;
42724;SDS011;28369;44.046;23.014;2023-04-03T12:52:41;2.78;;;2.50;;
42724;SDS011;28369;44.046;23.014;2023-04-03T12:55:17;2.95;;;2.45;;
42724;SDS011;28369;44.046;23.014;2023-04-03T12:57:45;2.88;;;2.42;;
42724;SDS011;28369;44.046;23.014;2023-04-03T13:00:28;2.10;;;1.90;;
42724;SDS011;28369;44.046;23.014;2023-04-03T13:02:55;4.93;;;1.70;;
42724;SDS011;28369;44.046;23.014;2023-04-03T13:05:22;1.90;;;1.50;;
42724;SDS011;28369;44.046;23.014;2023-04-03T13:07:49;2.47;;;2.28;;
42724;SDS011;28369;44.046;23.014;2023-04-03T13:10:17;2.13;;;1.92;;
42724;SDS011;28369;44.046;23.014;2023-04-03T13:12:48;1.65;;;1.55;;
42724;SDS011;28369;44.046;23.014;2023-04-03T13:15:39;1.63;;;1.45;;
42724;SDS011;28369;44.046;23.014;2023-04-03T13:18:48;1.60;;;1.50;;
42724;SDS011;28369;44.046;23.014;2023-04-03T13:21:19;2.03;;;1.60;;
42724;SDS011;28369;44.046;23.014;2023-04-03T13:23:49;2.58;;;1.95;;
42724;SDS011;28369;44.046;23.014;2023-04-03T13:26:17;2.85;;;1.90;;
42724;SDS011;28369;44.046;23.014;2023-04-03T13:28:45;4.32;;;2.47;;
42724;SDS011;28369;44.046;23.014;2023-04-03T13:31:25;3.95;;;2.72;;
42724;SDS011;28369;44.046;23.014;2023-04-03T13:34:03;2.92;;;2.72;;
42724;SDS011;28369;44.046;23.014;2023-04-03T13:36:34;3.38;;;2.35;;
42724;SDS011;28369;44.046;23.014;2023-04-03T13:41:38;2.08;;;1.85;;
42724;SDS011;28369;44.046;23.014;2023-04-03T13:46:50;2.90;;;2.38;;
42724;SDS011;28369;44.046;23.014;2023-04-03T13:49:22;3.08;;;1.73;;
42724;SDS011;28369;44.046;23.014;2023-04-03T13:51:48;5.70;;;2.40;;
42724;SDS011;28369;44.046;23.014;2023-04-03T13:54:23;2.45;;;2.10;;
42724;SDS011;28369;44.046;23.014;2023-04-03T13:56:54;4.03;;;2.97;;
42724;SDS011;28369;44.046;23.014;2023-04-03T13:59:23;2.08;;;1.50;;
42724;SDS011;28369;44.046;23.014;2023-04-03T14:32:21;8.90;;;7.10;;
42724;SDS011;28369;44.046;23.014;2023-04-03T14:35:08;8.65;;;7.82;;
42724;SDS011;28369;44.046;23.014;2023-04-03T14:37:39;8.40;;;7.60;;
42724;SDS011;28369;44.046;23.014;2023-04-03T14:40:23;8.02;;;7.22;;
42724;SDS011;28369;44.046;23.014;2023-04-03T14:42:56;7.57;;;6.80;;
42724;SDS011;28369;44.046;23.014;2023-04-03T14:45:25;8.13;;;6.75;;
42724;SDS011;28369;44.046;23.014;2023-04-03T14:48:02;8.93;;;7.57;;
42724;SDS011;28369;44.046;23.014;2023-04-03T14:50:35;8.05;;;7.10;;
42724;SDS011;28369;44.046;23.014;2023-04-03T15:57:41;6.43;;;5.57;;
42724;SDS011;28369;44.046;23.014;2023-04-03T16:19:15;8.00;;;7.07;;
42724;SDS011;28369;44.046;23.014;2023-04-03T16:21:54;10.65;;;6.65;;
42724;SDS011;28369;44.046;23.014;2023-04-03T16:24:24;9.95;;;7.47;;
42724;SDS011;28369;44.046;23.014;2023-04-03T16:26:52;8.45;;;7.65;;
42724;SDS011;28369;44.046;23.014;2023-04-03T16:29:20;9.32;;;6.78;;
42724;SDS011;28369;44.046;23.014;2023-04-03T19:39:21;13.25;;;10.50;;
42724;SDS011;28369;44.046;23.014;2023-04-03T19:41:54;12.57;;;11.20;;
42724;SDS011;28369;44.046;23.014;2023-04-03T19:44:23;15.48;;;13.93;;
42724;SDS011;28369;44.046;23.014;2023-04-03T19:46:53;15.07;;;13.48;;
42724;SDS011;28369;44.046;23.014;2023-04-03T19:49:20;14.98;;;13.48;;
42724;SDS011;28369;44.046;23.014;2023-04-03T19:52:15;16.10;;;14.25;;
42724;SDS011;28369;44.046;23.014;2023-04-03T19:54:57;16.48;;;14.73;;
42724;SDS011;28369;44.046;23.014;2023-04-03T19:57:39;19.23;;;14.90;;
42724;SDS011;28369;44.046;23.014;2023-04-03T20:00:13;18.20;;;15.75;;
42724;SDS011;28369;44.046;23.014;2023-04-03T20:02:56;14.73;;;11.68;;
42724;SDS011;28369;44.046;23.014;2023-04-03T20:05:24;9.25;;;7.97;;
42724;SDS011;28369;44.046;23.014;2023-04-03T20:08:02;10.07;;;8.75;;
42724;SDS011;28369;44.046;23.014;2023-04-03T20:10:38;7.13;;;5.63;;
42724;SDS011;28369;44.046;23.014;2023-04-03T20:13:33;5.60;;;4.50;;
42724;SDS011;28369;44.046;23.014;2023-04-03T20:16:19;4.40;;;3.45;;
42724;SDS011;28369;44.046;23.014;2023-04-03T20:21:47;9.90;;;6.85;;
42724;SDS011;28369;44.046;23.014;2023-04-03T20:24:15;8.40;;;7.47;;
42724;SDS011;28369;44.046;23.014;2023-04-03T20:26:41;9.68;;;7.30;;
42724;SDS011;28369;44.046;23.014;2023-04-03T20:29:15;16.67;;;8.18;;
42724;SDS011;28369;44.046;23.014;2023-04-03T20:31:44;10.48;;;8.38;;
42724;SDS011;28369;44.046;23.014;2023-04-03T20:34:11;13.07;;;9.80;;
42724;SDS011;28369;44.046;23.014;2023-04-03T20:36:39;11.70;;;8.38;;
42724;SDS011;28369;44.046;23.014;2023-04-03T20:39:07;12.55;;;10.02;;
42724;SDS011;28369;44.046;23.014;2023-04-03T20:41:34;7.10;;;6.38;;
42724;SDS011;28369;44.046;23.014;2023-04-03T20:44:01;8.18;;;7.38;;
42724;SDS011;28369;44.046;23.014;2023-04-03T20:46:29;8.82;;;6.57;;
42724;SDS011;28369;44.046;23.014;2023-04-03T20:48:55;9.35;;;7.82;;
42724;SDS011;28369;44.046;23.014;2023-04-03T20:51:22;11.45;;;8.50;;
42724;SDS011;28369;44.046;23.014;2023-04-03T20:53:49;13.65;;;10.27;;
42724;SDS011;28369;44.046;23.014;2023-04-03T20:56:15;14.75;;;10.88;;
42724;SDS011;28369;44.046;23.014;2023-04-03T20:58:43;16.20;;;12.93;;
42724;SDS011;28369;44.046;23.014;2023-04-03T21:01:20;18.00;;;13.25;;
42724;SDS011;28369;44.046;23.014;2023-04-03T21:03:48;21.23;;;14.75;;
42724;SDS011;28369;44.046;23.014;2023-04-03T21:21:21;35.03;;;22.35;;
42724;SDS011;28369;44.046;23.014;2023-04-03T21:23:54;34.85;;;20.88;;
42724;SDS011;28369;44.046;23.014;2023-04-03T21:26:22;30.80;;;20.67;;
42724;SDS011;28369;44.046;23.014;2023-04-03T21:28:50;31.20;;;20.67;;
42724;SDS011;28369;44.046;23.014;2023-04-03T21:31:19;27.98;;;20.77;;
42724;SDS011;28369;44.046;23.014;2023-04-03T21:33:46;38.03;;;23.75;;
42724;SDS011;28369;44.046;23.014;2023-04-03T21:36:13;28.75;;;19.75;;
42724;SDS011;28369;44.046;23.014;2023-04-03T21:38:39;29.38;;;20.83;;
42724;SDS011;28369;44.046;23.014;2023-04-03T21:41:05;30.38;;;19.30;;
42724;SDS011;28369;44.046;23.014;2023-04-03T21:43:32;25.75;;;19.00;;
42724;SDS011;28369;44.046;23.014;2023-04-03T21:46:00;24.23;;;16.80;;
42724;SDS011;28369;44.046;23.014;2023-04-03T21:48:30;28.40;;;19.85;;
42724;SDS011;28369;44.046;23.014;2023-04-03T21:51:05;24.90;;;19.02;;
42724;SDS011;28369;44.046;23.014;2023-04-03T21:53:31;14.60;;;11.23;;
42724;SDS011;28369;44.046;23.014;2023-04-03T21:55:59;19.02;;;12.90;;
42724;SDS011;28369;44.046;23.014;2023-04-03T21:58:29;19.08;;;15.05;;
42724;SDS011;28369;44.046;23.014;2023-04-03T22:00:56;21.10;;;16.05;;
42724;SDS011;28369;44.046;23.014;2023-04-03T22:03:24;22.38;;;15.55;;
42724;SDS011;28369;44.046;23.014;2023-04-03T22:05:51;21.02;;;16.80;;
42724;SDS011;28369;44.046;23.014;2023-04-03T22:08:20;24.13;;;16.58;;
42724;SDS011;28369;44.046;23.014;2023-04-03T22:10:47;22.30;;;15.63;;
42724;SDS011;28369;44.046;23.014;2023-04-03T22:13:14;19.25;;;14.27;;
42724;SDS011;28369;44.046;23.014;2023-04-03T22:15:47;23.05;;;16.40;;
42724;SDS011;28369;44.046;23.014;2023-04-03T22:18:13;19.70;;;14.38;;
42724;SDS011;28369;44.046;23.014;2023-04-03T22:20:43;17.17;;;13.45;;
42724;SDS011;28369;44.046;23.014;2023-04-03T22:23:11;18.02;;;13.40;;
42724;SDS011;28369;44.046;23.014;2023-04-03T22:25:37;10.85;;;9.68;;
42724;SDS011;28369;44.046;23.014;2023-04-03T22:28:03;8.18;;;7.28;;
42724;SDS011;28369;44.046;23.014;2023-04-03T22:30:29;9.10;;;7.70;;
42724;SDS011;28369;44.046;23.014;2023-04-03T22:32:56;10.38;;;9.38;;
42724;SDS011;28369;44.046;23.014;2023-04-03T22:35:23;10.43;;;9.25;;
42724;SDS011;28369;44.046;23.014;2023-04-03T22:37:49;13.25;;;10.27;;
42724;SDS011;28369;44.046;23.014;2023-04-03T22:40:15;12.57;;;10.13;;
42724;SDS011;28369;44.046;23.014;2023-04-03T22:42:44;16.30;;;11.27;;
42724;SDS011;28369;44.046;23.014;2023-04-03T22:45:12;10.48;;;9.35;;
42724;SDS011;28369;44.046;23.014;2023-04-03T22:47:39;8.10;;;7.15;;
42724;SDS011;28369;44.046;23.014;2023-04-03T22:50:05;8.07;;;6.80;;
42724;SDS011;28369;44.046;23.014;2023-04-03T22:52:32;8.00;;;7.10;;
42724;SDS011;28369;44.046;23.014;2023-04-03T22:54:59;8.82;;;7.32;;
42724;SDS011;28369;44.046;23.014;2023-04-03T22:57:24;9.13;;;7.88;;
42724;SDS011;28369;44.046;23.014;2023-04-03T22:59:50;8.82;;;7.93;;
42724;SDS011;28369;44.046;23.014;2023-04-03T23:02:16;7.65;;;6.95;;
42724;SDS011;28369;44.046;23.014;2023-04-03T23:04:43;9.80;;;7.15;;
42724;SDS011;28369;44.046;23.014;2023-04-03T23:07:14;14.70;;;7.70;;
42724;SDS011;28369;44.046;23.014;2023-04-03T23:09:41;6.13;;;5.03;;
42724;SDS011;28369;44.046;23.014;2023-04-03T23:12:07;8.00;;;5.55;;
42724;SDS011;28369;44.046;23.014;2023-04-03T23:14:34;5.65;;;4.95;;
42724;SDS011;28369;44.046;23.014;2023-04-03T23:17:00;10.93;;;6.30;;
42724;SDS011;28369;44.046;23.014;2023-04-03T23:19:31;5.97;;;5.38;;
42724;SDS011;28369;44.046;23.014;2023-04-03T23:21:59;5.97;;;4.97;;
42724;SDS011;28369;44.046;23.014;2023-04-03T23:24:26;7.22;;;6.20;;
42724;SDS011;28369;44.046;23.014;2023-04-03T23:26:52;9.75;;;6.70;;
42724;SDS011;28369;44.046;23.014;2023-04-03T23:29:20;9.77;;;7.60;;
42724;SDS011;28369;44.046;23.014;2023-04-03T23:31:46;9.45;;;8.43;;
42724;SDS011;28369;44.046;23.014;2023-04-03T23:34:14;9.68;;;8.30;;
42724;SDS011;28369;44.046;23.014;2023-04-03T23:36:41;10.02;;;9.02;;
42724;SDS011;28369;44.046;23.014;2023-04-03T23:39:08;9.15;;;8.25;;
42724;SDS011;28369;44.046;23.014;2023-04-03T23:41:36;9.88;;;8.27;;